Aurora, Kansas
Current Conditions -  °F | °C
As of 9:55 PM on Saturday 20 Dec 2014 (Local Time) from KCNK Reporting Station
Clear Clear  
Wind Chill: 28°   Ceiling: Unl
Heat Index: 37°   Visibility: 10mi
Dew Point: 36°   Wind: 15mph
Humidity: 96%   Direction: 190°S
Pressure: 30.01"   Gusts: NA
Location:  39.45°N, 97.53°W
Report Text: KCNK 210355Z AUTO 19013KT 10SM CLR 03/02 A3001 RMK AO2 SLP172 T00280022 $
Loading
Personal Weather Stations






























Interactive Weather Map New forecast layout! Learn more

10-Day Weather Forecast

Advertisements
Track Severe Weather on mobile